Time;durP1;ratioP1;P1;durP2;ratioP2;P2;SDS_P1;SDS_P2;PMS_P1;PMS_P2;Temp;Humidity;BMP_temperature;BMP_pressure;BME280_temperature;BME280_humidity;BME280_pressure;Samples;Min_cycle;Max_cycle;Signal;HPM_P1;HPM_P2
2022/06/02 00:01:56;;;;;;;1999.90;999.90;;;9.40;99.90;;;;;;5074296;28;20473;-71
2022/06/02 00:04:29;;;;;;;1999.90;999.90;;;9.40;99.90;;;;;;5073828;28;20527;-70
2022/06/02 00:07:09;;;;;;;1999.90;999.90;;;9.50;99.90;;;;;;5074541;28;20475;-72
2022/06/02 00:09:46;;;;;;;1999.90;999.90;;;9.50;99.90;;;;;;5074421;28;20941;-71
2022/06/02 00:12:23;;;;;;;1999.90;999.90;;;9.50;99.90;;;;;;5074101;28;20473;-69
2022/06/02 00:15:00;;;;;;;1999.90;999.90;;;9.60;99.90;;;;;;5073891;28;20442;-69
2022/06/02 00:17:39;;;;;;;1999.90;999.90;;;9.60;99.90;;;;;;5074605;28;20475;-70
2022/06/02 00:20:10;;;;;;;1999.90;999.90;;;9.70;99.90;;;;;;5074323;28;20503;-70
2022/06/02 00:22:45;;;;;;;1999.90;999.90;;;9.70;99.90;;;;;;5073826;28;20473;-70
2022/06/02 00:25:17;;;;;;;1999.90;999.90;;;9.60;99.90;;;;;;5073670;28;20485;-69
2022/06/02 00:27:54;;;;;;;1999.90;999.90;;;9.50;99.90;;;;;;5074432;28;20450;-70
2022/06/02 00:30:24;;;;;;;1999.90;999.90;;;9.50;99.90;;;;;;5074088;28;20425;-69
2022/06/02 00:33:01;;;;;;;1999.90;999.90;;;9.40;99.90;;;;;;5068058;28;20502;-69
2022/06/02 00:35:35;;;;;;;1999.90;999.90;;;9.40;99.90;;;;;;5067004;28;20457;-71
2022/06/02 00:38:05;;;;;;;1999.90;999.90;;;9.50;99.90;;;;;;5061995;28;20469;-69
2022/06/02 00:40:34;;;;;;;1999.90;999.90;;;9.60;99.90;;;;;;5062199;28;20807;-70
2022/06/02 00:43:30;;;;;;;1999.90;999.90;;;9.60;99.90;;;;;;5063862;28;21070;-70
2022/06/02 00:46:05;;;;;;;1999.90;999.90;;;9.70;99.90;;;;;;5061930;28;20481;-70
2022/06/02 00:48:46;;;;;;;1999.90;999.90;;;9.70;99.90;;;;;;5063403;28;20944;-69
2022/06/02 00:51:18;;;;;;;1999.90;999.90;;;9.70;99.90;;;;;;5063327;28;20453;-71
2022/06/02 00:59:45;;;;;;;1999.90;999.90;;;9.70;99.90;;;;;;5050514;28;20835;-71
2022/06/02 01:02:12;;;;;;;1999.90;999.90;;;9.70;99.90;;;;;;5067188;28;21028;-69
2022/06/02 01:04:44;;;;;;;1999.90;999.90;;;9.60;99.90;;;;;;5070441;28;20841;-69
2022/06/02 01:07:23;;;;;;;1999.90;999.90;;;9.50;99.90;;;;;;5059639;28;20519;-69
2022/06/02 01:10:29;;;;;;;1999.90;999.90;;;9.30;99.90;;;;;;5060480;28;20467;-69
2022/06/02 01:13:13;;;;;;;1999.90;999.90;;;9.20;99.90;;;;;;5051156;28;20551;-69
2022/06/02 01:15:49;;;;;;;1999.90;999.90;;;9.20;99.90;;;;;;5062318;28;20530;-69
2022/06/02 01:18:26;;;;;;;1999.90;999.90;;;9.30;99.90;;;;;;5059168;28;20466;-71
2022/06/02 01:21:11;;;;;;;1999.90;999.90;;;9.30;99.90;;;;;;5065069;28;20453;-69
2022/06/02 01:24:06;;;;;;;1999.90;999.90;;;9.30;99.90;;;;;;5061005;28;20465;-69
2022/06/02 01:27:00;;;;;;;1999.90;999.90;;;9.40;99.90;;;;;;5060484;28;20454;-69
2022/06/02 01:29:55;;;;;;;1999.90;999.90;;;9.60;99.90;;;;;;5063374;28;20462;-69
2022/06/02 01:32:28;;;;;;;1999.90;999.90;;;9.60;99.90;;;;;;5061934;28;20470;-69
2022/06/02 01:35:05;;;;;;;1999.90;999.90;;;9.70;99.90;;;;;;5063832;28;20515;-68
2022/06/02 01:37:38;;;;;;;1999.90;999.90;;;9.80;99.90;;;;;;5061604;28;20461;-71
2022/06/02 01:40:18;;;;;;;1999.90;999.90;;;9.80;99.90;;;;;;5067463;28;20502;-69
2022/06/02 01:42:54;;;;;;;1999.90;999.90;;;9.80;99.90;;;;;;5064183;28;20482;-69
2022/06/02 01:45:35;;;;;;;1999.90;999.90;;;9.90;99.90;;;;;;5062464;28;20528;-68
2022/06/02 01:48:11;;;;;;;1999.90;999.90;;;10.00;99.90;;;;;;5058185;28;20457;-69
2022/06/02 01:50:51;;;;;;;1999.90;999.90;;;10.00;99.90;;;;;;5065095;28;20878;-70
2022/06/02 01:53:25;;;;;;;1999.90;999.90;;;10.10;99.90;;;;;;5062405;28;20508;-67
2022/06/02 01:56:19;;;;;;;1999.90;999.90;;;10.20;99.90;;;;;;5061069;28;20492;-69
2022/06/02 01:59:01;;;;;;;1999.90;999.90;;;10.30;99.90;;;;;;5063368;28;21301;-68
2022/06/02 02:01:37;;;;;;;1999.90;999.90;;;10.50;99.90;;;;;;5062223;28;20482;-69
2022/06/02 02:04:20;;;;;;;1999.90;999.90;;;10.50;99.90;;;;;;5061935;28;20957;-68
2022/06/02 02:06:57;;;;;;;1999.90;999.90;;;10.60;99.90;;;;;;5064598;28;20508;-68
2022/06/02 02:09:31;;;;;;;1999.90;999.90;;;10.70;99.90;;;;;;5062152;28;20462;-67
2022/06/02 02:12:00;;;;;;;1999.90;999.90;;;10.70;99.90;;;;;;5060429;28;20545;-68
2022/06/02 02:14:54;;;;;;;1999.90;999.90;;;10.60;99.90;;;;;;5060444;28;20591;-68
2022/06/02 02:17:44;;;;;;;1999.90;999.90;;;10.70;99.90;;;;;;5060314;28;20809;-68
2022/06/02 02:20:22;;;;;;;1999.90;999.90;;;10.70;99.90;;;;;;5059629;28;20883;-70
2022/06/02 02:22:55;;;;;;;1999.90;999.90;;;10.60;99.90;;;;;;5059819;28;20489;-69
2022/06/02 02:25:29;;;;;;;1999.90;999.90;;;10.60;99.90;;;;;;5057942;28;20547;-67
2022/06/02 02:28:07;;;;;;;1999.90;999.90;;;10.50;99.90;;;;;;5065358;28;20460;-68
2022/06/02 02:30:45;;;;;;;1999.90;999.90;;;10.40;99.90;;;;;;5061172;28;20531;-70
2022/06/02 02:33:25;;;;;;;1999.90;999.90;;;10.40;99.90;;;;;;5063262;28;20527;-69
2022/06/02 02:36:01;;;;;;;1999.90;999.90;;;10.40;99.90;;;;;;5064570;28;20458;-70
2022/06/02 02:38:35;;;;;;;1999.90;999.90;;;10.30;99.90;;;;;;5062290;28;20544;-67
2022/06/02 02:41:06;;;;;;;1999.90;999.90;;;10.30;99.90;;;;;;5063387;28;20457;-66
2022/06/02 02:43:40;;;;;;;1999.90;999.90;;;10.30;99.90;;;;;;5056692;28;20462;-68
2022/06/02 02:46:14;;;;;;;1999.90;999.90;;;10.20;99.90;;;;;;5060369;28;20492;-70
2022/06/02 02:48:51;;;;;;;1999.90;999.90;;;10.20;99.90;;;;;;5060907;28;20471;-70
2022/06/02 02:51:31;;;;;;;1999.90;999.90;;;10.10;99.90;;;;;;5060033;28;20462;-69
2022/06/02 02:54:05;;;;;;;1999.90;999.90;;;10.10;99.90;;;;;;5059071;28;20457;-69
2022/06/02 02:56:36;;;;;;;1999.90;999.90;;;10.00;99.90;;;;;;5060232;28;20474;-68
2022/06/02 02:59:11;;;;;;;1999.90;999.90;;;10.00;99.90;;;;;;5059212;28;20889;-68
2022/06/02 03:01:48;;;;;;;1999.90;999.90;;;9.90;99.90;;;;;;5063414;28;20542;-67
2022/06/02 03:04:26;;;;;;;1999.90;999.90;;;9.90;99.90;;;;;;5065069;28;20454;-68
2022/06/02 03:06:54;;;;;;;1999.90;999.90;;;9.90;99.90;;;;;;5064580;28;20482;-68
2022/06/02 03:09:28;;;;;;;1999.90;999.90;;;9.90;99.90;;;;;;5059358;28;20462;-68
2022/06/02 03:12:17;;;;;;;1999.90;999.90;;;9.90;99.90;;;;;;5061206;28;20550;-68
2022/06/02 03:14:59;;;;;;;1999.90;999.90;;;9.80;99.90;;;;;;5061227;28;20503;-68
2022/06/02 03:17:38;;;;;;;1999.90;999.90;;;9.80;99.90;;;;;;5058569;28;20454;-68
2022/06/02 03:20:12;;;;;;;1999.90;999.90;;;9.80;99.90;;;;;;5060901;28;20472;-69
2022/06/02 03:22:53;;;;;;;1999.90;999.90;;;9.70;99.90;;;;;;5060064;28;20564;-68
2022/06/02 03:25:28;;;;;;;1999.90;999.90;;;9.70;99.90;;;;;;5064313;28;20500;-69
2022/06/02 03:28:04;;;;;;;1999.90;999.90;;;9.70;99.90;;;;;;5065185;28;20985;-70
2022/06/02 03:30:42;;;;;;;1999.90;999.90;;;9.70;99.90;;;;;;5065542;28;20578;-68
2022/06/02 03:33:26;;;;;;;1999.90;999.90;;;9.60;99.90;;;;;;5066509;28;20511;-69
2022/06/02 03:36:07;;;;;;;1999.90;999.90;;;9.60;99.90;;;;;;5067700;28;20518;-70
2022/06/02 03:38:53;;;;;;;1999.90;999.90;;;9.70;99.90;;;;;;5063853;28;20873;-69
2022/06/02 03:42:08;;;;;;;1999.90;999.90;;;9.80;99.90;;;;;;5066214;28;20465;-69
2022/06/02 03:44:47;;;;;;;1999.90;999.90;;;10.00;99.90;;;;;;5022256;28;21079;-69
2022/06/02 03:47:28;;;;;;;1999.90;999.90;;;10.10;99.90;;;;;;5066235;28;20489;-68
2022/06/02 03:50:28;;;;;;;1999.90;999.90;;;10.20;99.90;;;;;;5065950;28;20519;-68
2022/06/02 03:53:08;;;;;;;1999.90;999.90;;;10.30;99.90;;;;;;5058166;28;20485;-68
2022/06/02 03:55:48;;;;;;;1999.90;999.90;;;10.50;99.90;;;;;;5067052;28;20465;-70
2022/06/02 03:58:36;;;;;;;1999.90;999.90;;;10.60;99.90;;;;;;5063705;28;20527;-68
2022/06/02 04:01:06;;;;;;;1999.90;999.90;;;10.60;99.90;;;;;;5066414;28;20465;-67
2022/06/02 04:03:52;;;;;;;1999.90;999.90;;;10.70;99.90;;;;;;5061791;28;20458;-68
2022/06/02 04:06:27;;;;;;;1999.90;999.90;;;10.80;99.90;;;;;;5063612;28;20485;-68
2022/06/02 04:09:10;;;;;;;1999.90;999.90;;;11.00;99.90;;;;;;5064404;28;20545;-68
2022/06/02 04:15:05;;;;;;;1999.90;999.90;;;10.90;99.90;;;;;;5063042;28;20580;-68
2022/06/02 04:17:37;;;;;;;1999.90;999.90;;;10.90;99.90;;;;;;5061643;28;20964;-67
2022/06/02 04:20:36;;;;;;;1999.90;999.90;;;11.00;99.90;;;;;;5064763;28;20453;-67
2022/06/02 04:23:39;;;;;;;1999.90;999.90;;;11.10;99.90;;;;;;5062224;28;20531;-68
2022/06/02 04:26:18;;;;;;;1999.90;999.90;;;11.10;99.90;;;;;;5061858;28;20516;-67
2022/06/02 04:28:54;;;;;;;1999.90;999.90;;;11.10;99.90;;;;;;5065992;28;20469;-68
2022/06/02 04:31:37;;;;;;;1999.90;999.90;;;11.40;99.90;;;;;;5061017;28;20543;-67
2022/06/02 04:34:13;;;;;;;1999.90;999.90;;;11.70;99.90;;;;;;5062884;28;20511;-66
2022/06/02 04:36:48;;;;;;;1999.90;999.90;;;11.90;99.90;;;;;;5063100;28;20886;-66
2022/06/02 04:39:22;;;;;;;1999.90;999.90;;;12.30;99.90;;;;;;5063979;28;20462;-66
2022/06/02 04:42:02;;;;;;;1999.90;999.90;;;12.30;99.90;;;;;;5058539;28;20576;-66
2022/06/02 04:44:38;;;;;;;1999.90;999.90;;;12.10;99.90;;;;;;5056927;28;20457;-65
2022/06/02 04:47:15;;;;;;;1999.90;999.90;;;12.20;99.90;;;;;;5061438;28;20498;-67
2022/06/02 04:49:59;;;;;;;1999.90;999.90;;;12.40;99.90;;;;;;5056968;28;20508;-66
2022/06/02 04:52:33;;;;;;;1999.90;999.90;;;12.60;99.90;;;;;;5059802;28;20482;-66
2022/06/02 04:55:10;;;;;;;1999.90;999.90;;;12.50;99.90;;;;;;5061923;28;20465;-65
2022/06/02 04:57:40;;;;;;;1999.90;999.90;;;12.60;99.90;;;;;;5056638;28;20480;-66
2022/06/02 05:00:17;;;;;;;1999.90;999.90;;;12.90;99.90;;;;;;5062730;28;20457;-66
2022/06/02 05:02:55;;;;;;;1999.90;999.90;;;12.90;99.90;;;;;;5067330;28;21016;-65
2022/06/02 05:05:31;;;;;;;1999.90;999.90;;;13.10;99.90;;;;;;5073230;28;20449;-64
2022/06/02 05:08:29;;;;;;;1999.90;999.90;;;13.20;99.90;;;;;;5059700;28;20538;-65
2022/06/02 05:11:12;;;;;;;1999.90;999.90;;;13.40;99.90;;;;;;5054689;28;20462;-66
2022/06/02 05:13:48;;;;;;;1999.90;999.90;;;13.50;99.90;;;;;;5070035;22;21106;-70
2022/06/02 05:16:25;;;;;;;1999.90;999.90;;;13.70;99.90;;;;;;5032786;28;20491;-70
2022/06/02 05:19:32;;;;;;;1999.90;999.90;;;13.50;99.90;;;;;;5031728;28;20470;-70
2022/06/02 05:22:15;;;;;;;1999.90;999.90;;;13.70;99.90;;;;;;5029996;28;20486;-70
2022/06/02 05:24:59;;;;;;;1999.90;999.90;;;13.80;99.90;;;;;;5028682;28;20554;-70
2022/06/02 05:27:59;;;;;;;1999.90;999.90;;;13.90;99.90;;;;;;5031132;28;20483;-71
2022/06/02 05:30:51;;;;;;;1999.90;999.90;;;13.90;99.90;;;;;;5027481;28;20459;-70
2022/06/02 05:33:31;;;;;;;1999.90;999.90;;;14.10;99.90;;;;;;5030438;28;20486;-71
2022/06/02 05:36:17;;;;;;;1999.90;999.90;;;14.10;99.90;;;;;;5027977;28;20458;-71
2022/06/02 05:39:02;;;;;;;1999.90;999.90;;;14.30;99.90;;;;;;5029034;28;20462;-70
2022/06/02 05:41:42;;;;;;;1999.90;999.90;;;14.20;99.90;;;;;;5018178;28;20811;-70
2022/06/02 05:44:15;;;;;;;1999.90;999.90;;;14.40;99.90;;;;;;5034003;28;20510;-71
2022/06/02 05:47:02;;;;;;;1999.90;999.90;;;14.50;99.90;;;;;;5036100;28;20537;-71
2022/06/02 05:49:40;;;;;;;1999.90;999.90;;;14.60;99.90;;;;;;5024557;28;20460;-71
2022/06/02 05:52:29;;;;;;;1999.90;999.90;;;14.70;99.90;;;;;;5021897;28;20510;-70
2022/06/02 05:55:15;;;;;;;1999.90;999.90;;;14.50;99.90;;;;;;5027328;28;20456;-70
2022/06/02 05:57:49;;;;;;;1999.90;999.90;;;14.20;99.90;;;;;;5030634;28;20497;-70
2022/06/02 06:00:26;;;;;;;1999.90;999.90;;;13.80;99.90;;;;;;5030375;28;20460;-70
2022/06/02 06:03:18;;;;;;;1999.90;999.90;;;13.90;99.90;;;;;;5028856;28;20491;-71
2022/06/02 06:05:50;;;;;;;1999.90;999.90;;;14.10;99.90;;;;;;5034190;28;21024;-70
2022/06/02 06:08:34;;;;;;;1999.90;999.90;;;14.20;99.90;;;;;;5030709;28;20459;-71
2022/06/02 06:11:16;;;;;;;1999.90;999.90;;;14.30;99.90;;;;;;5030478;28;20459;-70
2022/06/02 06:14:03;;;;;;;1999.90;999.90;;;14.20;99.90;;;;;;5029243;28;20490;-71
2022/06/02 06:16:39;;;;;;;1999.90;999.90;;;14.30;99.90;;;;;;5029992;28;20524;-70
2022/06/02 06:19:18;;;;;;;1999.90;999.90;;;14.50;99.90;;;;;;5029726;28;20517;-71
2022/06/02 06:22:05;;;;;;;1999.90;999.90;;;14.80;99.90;;;;;;5036524;28;20893;-71
2022/06/02 06:24:50;;;;;;;1999.90;999.90;;;14.90;99.90;;;;;;5031234;28;20479;-69
2022/06/02 06:27:27;;;;;;;1999.90;999.90;;;15.10;99.90;;;;;;5033798;28;20471;-71
2022/06/02 06:30:08;;;;;;;1999.90;999.90;;;15.30;99.90;;;;;;5029161;28;20509;-70
2022/06/02 06:32:41;;;;;;;1999.90;999.90;;;15.30;99.90;;;;;;5033356;28;20529;-71
2022/06/02 06:35:19;;;;;;;1999.90;999.90;;;15.50;99.90;;;;;;5027648;28;20459;-71
2022/06/02 06:38:04;;;;;;;1999.90;999.90;;;15.50;99.90;;;;;;5025829;28;20455;-70
2022/06/02 06:41:03;;;;;;;1999.90;999.90;;;15.80;99.90;;;;;;5026263;28;20463;-71
2022/06/02 06:43:46;;;;;;;1999.90;999.90;;;15.90;99.90;;;;;;5025599;28;20487;-72
2022/06/02 06:46:22;;;;;;;1999.90;999.90;;;16.00;99.90;;;;;;5034059;28;21935;-70
2022/06/02 06:48:57;;;;;;;1999.90;999.90;;;15.90;99.90;;;;;;5033182;28;20462;-70
2022/06/02 06:51:30;;;;;;;1999.90;999.90;;;15.80;99.90;;;;;;5026676;28;20523;-71
2022/06/02 06:54:06;;;;;;;1999.90;999.90;;;15.90;99.90;;;;;;5019640;28;20573;-70
2022/06/02 06:56:40;;;;;;;1999.90;999.90;;;16.00;99.90;;;;;;5027429;28;20443;-71
2022/06/02 06:59:24;;;;;;;1999.90;999.90;;;16.40;99.90;;;;;;5034908;28;20446;-71
2022/06/02 07:02:02;;;;;;;1999.90;999.90;;;16.40;99.90;;;;;;5035439;28;20534;-71
2022/06/02 07:04:38;;;;;;;1999.90;999.90;;;16.10;99.90;;;;;;5033742;28;20562;-70
2022/06/02 07:07:12;;;;;;;1999.90;999.90;;;15.80;99.90;;;;;;5031583;28;20902;-71
2022/06/02 07:09:48;;;;;;;1999.90;999.90;;;15.60;99.90;;;;;;5034231;28;20817;-71
2022/06/02 07:15:12;;;;;;;1999.90;999.90;;;16.30;99.90;;;;;;5032590;28;20462;-71
2022/06/02 07:17:46;;;;;;;1999.90;999.90;;;16.60;99.90;;;;;;5020925;28;20428;-71
2022/06/02 07:20:19;;;;;;;1999.90;999.90;;;16.30;99.90;;;;;;5015751;28;20868;-70
2022/06/02 07:22:53;;;;;;;1999.90;999.90;;;16.00;99.90;;;;;;5034956;28;20486;-71
2022/06/02 07:25:28;;;;;;;1999.90;999.90;;;15.80;99.90;;;;;;5035234;28;20457;-70
2022/06/02 07:28:02;;;;;;;1999.90;999.90;;;15.80;99.90;;;;;;5025517;28;20548;-71
2022/06/02 07:30:53;;;;;;;1999.90;999.90;;;16.10;99.90;;;;;;5034803;28;20882;-71
2022/06/02 07:33:32;;;;;;;1999.90;999.90;;;16.00;99.90;;;;;;5034615;28;20483;-71
2022/06/02 07:36:22;;;;;;;1999.90;999.90;;;16.20;99.90;;;;;;5032668;28;20879;-71
2022/06/02 07:39:08;;;;;;;1999.90;999.90;;;16.70;99.90;;;;;;5031097;28;20513;-71
2022/06/02 07:41:51;;;;;;;1999.90;999.90;;;17.30;99.90;;;;;;5030332;28;20459;-69
2022/06/02 07:44:48;;;;;;;1999.90;999.90;;;17.60;99.90;;;;;;5028619;28;20553;-71
2022/06/02 07:47:36;;;;;;;1999.90;999.90;;;18.10;99.90;;;;;;5033433;28;20994;-70
2022/06/02 07:50:10;;;;;;;1999.90;999.90;;;17.50;99.90;;;;;;5033131;28;20513;-71
2022/06/02 07:52:47;;;;;;;1999.90;999.90;;;17.30;99.90;;;;;;5032280;28;20513;-70
2022/06/02 07:55:23;;;;;;;1999.90;999.90;;;17.30;99.90;;;;;;5032814;28;20463;-70
2022/06/02 07:58:05;;;;;;;1999.90;999.90;;;17.20;99.90;;;;;;5032166;28;20883;-70
2022/06/02 08:00:39;;;;;;;1999.90;999.90;;;16.50;99.90;;;;;;5029536;28;20890;-71
2022/06/02 08:03:30;;;;;;;1999.90;999.90;;;16.00;99.90;;;;;;5035239;28;21077;-71
2022/06/02 08:06:03;;;;;;;1999.90;999.90;;;16.00;99.90;;;;;;5031212;28;20467;-68
2022/06/02 08:08:40;;;;;;;1999.90;999.90;;;16.40;99.90;;;;;;5030283;28;20471;-71
2022/06/02 08:11:25;;;;;;;1999.90;999.90;;;16.80;99.90;;;;;;5032013;28;21892;-70
2022/06/02 08:14:02;;;;;;;1999.90;999.90;;;17.10;99.90;;;;;;5027480;28;20554;-71
2022/06/02 08:16:36;;;;;;;1999.90;999.90;;;16.70;99.90;;;;;;5041377;28;20991;-70
2022/06/02 08:19:11;;;;;;;1999.90;999.90;;;16.40;99.90;;;;;;5040957;28;20516;-70
2022/06/02 08:21:43;;;;;;;1999.90;999.90;;;16.00;99.90;;;;;;5039949;28;20527;-70
2022/06/02 08:24:27;;;;;;;1999.90;999.90;;;16.10;99.90;;;;;;5030710;28;20570;-70
2022/06/02 08:27:17;;;;;;;1999.90;999.90;;;16.60;99.90;;;;;;5035882;28;20553;-70
2022/06/02 08:30:01;;;;;;;1999.90;999.90;;;16.40;99.90;;;;;;5030579;28;20463;-70
2022/06/02 08:32:51;;;;;;;1999.90;999.90;;;16.10;99.90;;;;;;5031422;28;20451;-70
2022/06/02 08:35:23;;;;;;;1999.90;999.90;;;15.80;99.90;;;;;;5024177;28;20559;-71
2022/06/02 08:38:04;;;;;;;1999.90;999.90;;;16.10;99.90;;;;;;5014009;28;20424;-71
2022/06/02 08:41:28;;;;;;;1999.90;999.90;;;16.40;99.90;;;;;;5014281;28;20433;-70
2022/06/02 08:44:23;;;;;;;1999.90;999.90;;;16.80;99.90;;;;;;5001740;28;20994;-70
2022/06/02 08:47:17;;;;;;;1999.90;999.90;;;17.30;99.90;;;;;;5014500;28;20479;-71
2022/06/02 08:50:11;;;;;;;1999.90;999.90;;;17.80;99.90;;;;;;5011213;28;20881;-70
2022/06/02 08:53:16;;;;;;;1999.90;999.90;;;17.80;99.90;;;;;;5028350;28;20467;-70
2022/06/02 08:56:14;;;;;;;1999.90;999.90;;;17.40;99.90;;;;;;5029460;28;20459;-70
2022/06/02 08:59:40;;;;;;;1999.90;999.90;;;17.00;99.90;;;;;;5035538;28;20455;-71
2022/06/02 09:02:35;;;;;;;1999.90;999.90;;;17.40;99.90;;;;;;4968683;28;20466;-70
2022/06/02 09:05:51;;;;;;;1999.90;999.90;;;17.50;99.90;;;;;;5028497;28;20471;-70
2022/06/02 09:41:56;;;;;;;1999.90;999.90;;;16.00;99.90;;;;;;5115570;22;20629;-63
2022/06/02 09:44:28;;;;;;;1999.90;999.90;;;17.50;99.90;;;;;;5036972;28;20462;-67
2022/06/02 09:47:26;;;;;;;1999.90;999.90;;;17.60;99.90;;;;;;5029658;28;20550;-62
2022/06/02 09:50:18;;;;;;;1999.90;999.90;;;18.00;99.90;;;;;;5028639;28;21008;-67
2022/06/02 09:52:58;;;;;;;1999.90;999.90;;;18.20;99.00;;;;;;5024355;28;20491;-64
2022/06/02 09:55:40;;;;;;;1999.90;999.90;;;18.10;98.30;;;;;;5029003;28;20503;-62
2022/06/02 09:58:27;;;;;;;1999.90;999.90;;;18.40;99.00;;;;;;5025456;28;20475;-66
2022/06/02 10:01:11;;;;;;;1999.90;999.90;;;18.30;97.90;;;;;;5026537;28;21018;-66
2022/06/02 10:04:08;;;;;;;1999.90;999.90;;;18.10;98.00;;;;;;5027336;28;20497;-66
2022/06/02 10:07:13;;;;;;;1999.90;999.90;;;18.20;98.00;;;;;;5029575;28;20958;-66
2022/06/02 10:10:09;;;;;;;1999.90;999.90;;;18.10;96.90;;;;;;5026103;28;20458;-67
2022/06/02 10:12:57;;;;;;;1999.90;999.90;;;18.00;98.10;;;;;;5023558;28;20980;-66
2022/06/02 10:15:43;;;;;;;1999.90;999.90;;;18.10;97.80;;;;;;5034838;28;20454;-66
2022/06/02 10:18:28;;;;;;;1999.90;999.90;;;18.10;97.10;;;;;;5043658;28;20438;-67
2022/06/02 10:21:38;;;;;;;1999.90;999.90;;;18.00;96.80;;;;;;5027960;28;20545;-66
2022/06/02 10:24:41;;;;;;;1999.90;999.90;;;18.40;97.10;;;;;;5006142;28;20561;-64
2022/06/02 10:27:31;;;;;;;1999.90;999.90;;;18.50;95.50;;;;;;5015874;28;20892;-66
2022/06/02 10:30:28;;;;;;;1999.90;999.90;;;18.10;96.20;;;;;;5023917;28;20517;-66
2022/06/02 10:33:28;;;;;;;1999.90;999.90;;;18.10;96.60;;;;;;5026787;28;20639;-66
2022/06/02 10:36:28;;;;;;;1999.90;999.90;;;18.30;96.00;;;;;;5029547;28;20463;-66
2022/06/02 10:39:13;;;;;;;1999.90;999.90;;;18.40;95.70;;;;;;5030455;28;21226;-67
2022/06/02 10:41:59;;;;;;;1999.90;999.90;;;18.50;95.80;;;;;;5033857;28;20487;-64
2022/06/02 10:44:51;;;;;;;1999.90;999.90;;;18.70;94.50;;;;;;5027874;28;20870;-66
2022/06/02 10:47:54;;;;;;;1999.90;999.90;;;18.50;95.00;;;;;;5028272;28;20439;-64
2022/06/02 10:50:36;;;;;;;1999.90;999.90;;;18.80;96.20;;;;;;5028275;28;20435;-64
2022/06/02 10:53:30;;;;;;;1999.90;999.90;;;18.90;95.10;;;;;;5014659;28;20476;-64
2022/06/02 10:56:32;;;;;;;1999.90;999.90;;;19.00;93.50;;;;;;5014820;28;20447;-66
2022/06/02 10:59:25;;;;;;;1999.90;999.90;;;18.80;93.60;;;;;;5014504;28;20444;-66
2022/06/02 11:02:58;;;;;;;1999.90;999.90;;;18.70;94.80;;;;;;5014483;28;20487;-64
2022/06/02 11:06:11;;;;;;;1999.90;999.90;;;19.00;95.30;;;;;;4915808;29;20488;-66
2022/06/02 11:09:10;;;;;;;1999.90;999.90;;;19.00;94.40;;;;;;4915444;29;20531;-64
2022/06/02 11:11:49;;;;;;;1999.90;999.90;;;19.20;94.00;;;;;;5008490;28;20554;-63
2022/06/02 11:14:51;;;;;;;1999.90;999.90;;;19.20;94.40;;;;;;4994996;28;20448;-62
2022/06/02 11:17:47;;;;;;;1999.90;999.90;;;19.30;95.40;;;;;;4984880;28;20465;-63
2022/06/02 11:20:49;;;;;;;1999.90;999.90;;;19.40;94.40;;;;;;4994876;28;20469;-65
2022/06/02 11:23:58;;;;;;;1999.90;999.90;;;19.30;91.70;;;;;;5007777;28;20590;-64
2022/06/02 11:27:14;;;;;;;1999.90;999.90;;;19.20;93.40;;;;;;5014523;28;20447;-64
2022/06/02 11:30:05;;;;;;;1999.90;999.90;;;19.20;93.00;;;;;;4952589;29;20446;-64
2022/06/02 11:32:45;;;;;;;1999.90;999.90;;;19.00;92.70;;;;;;4991127;28;20533;-64
2022/06/02 11:35:38;;;;;;;1999.90;999.90;;;19.10;93.10;;;;;;4994747;28;20428;-64
2022/06/02 11:38:32;;;;;;;1999.90;999.90;;;19.20;93.30;;;;;;5005645;28;20518;-64
2022/06/02 11:41:35;;;;;;;1999.90;999.90;;;19.50;93.50;;;;;;5013887;28;20480;-64
2022/06/02 11:44:10;;;;;;;1999.90;999.90;;;19.30;94.10;;;;;;4998993;28;20462;-64
2022/06/02 11:47:08;;;;;;;1999.90;999.90;;;19.10;94.60;;;;;;5013919;28;20447;-64
2022/06/02 11:50:16;;;;;;;1999.90;999.90;;;19.40;92.40;;;;;;4994129;28;20501;-63
2022/06/02 11:53:04;;;;;;;1999.90;999.90;;;19.40;91.40;;;;;;4994321;28;20469;-65
2022/06/02 11:55:37;;;;;;;1999.90;999.90;;;19.60;93.00;;;;;;5013578;28;20432;-64
2022/06/02 11:58:53;;;;;;;1999.90;999.90;;;19.70;91.90;;;;;;5013322;28;20436;-62
2022/06/02 12:01:42;;;;;;;1999.90;999.90;;;19.80;91.00;;;;;;4968584;28;20554;-64
2022/06/02 12:04:45;;;;;;;1999.90;999.90;;;19.80;91.40;;;;;;5012763;28;20461;-64
2022/06/02 12:07:37;;;;;;;1999.90;999.90;;;19.80;91.80;;;;;;5013238;28;20443;-64
2022/06/02 12:10:33;;;;;;;1999.90;999.90;;;19.80;92.80;;;;;;5013267;28;20514;-65
2022/06/02 12:13:12;;;;;;;1999.90;999.90;;;19.50;93.40;;;;;;5013599;28;20475;-64
2022/06/02 12:16:16;;;;;;;1999.90;999.90;;;19.60;93.20;;;;;;5012468;28;20865;-64
2022/06/02 12:18:58;;;;;;;1999.90;999.90;;;19.60;93.00;;;;;;5013076;28;20874;-64
2022/06/02 12:21:48;;;;;;;1999.90;999.90;;;19.70;93.40;;;;;;5013338;28;20488;-64
2022/06/02 12:24:40;;;;;;;1999.90;999.90;;;19.70;92.70;;;;;;5010653;28;21029;-64
2022/06/02 12:27:35;;;;;;;1999.90;999.90;;;19.60;92.80;;;;;;5012954;28;20506;-65
2022/06/02 12:30:19;;;;;;;1999.90;999.90;;;19.50;92.00;;;;;;5012404;28;20579;-64
2022/06/02 12:32:59;;;;;;;1999.90;999.90;;;19.60;91.40;;;;;;5013092;28;20468;-65
2022/06/02 12:35:44;;;;;;;1999.90;999.90;;;19.70;91.30;;;;;;5012728;28;20448;-65
2022/06/02 12:38:43;;;;;;;1999.90;999.90;;;19.60;92.30;;;;;;5012346;28;20781;-65
2022/06/02 12:41:27;;;;;;;1999.90;999.90;;;19.60;92.80;;;;;;5013001;28;20468;-64
2022/06/02 12:44:24;;;;;;;1999.90;999.90;;;19.60;92.70;;;;;;5012897;28;20439;-64
2022/06/02 12:47:20;;;;;;;1999.90;999.90;;;19.70;92.70;;;;;;5012401;28;20536;-67
2022/06/02 12:50:17;;;;;;;1999.90;999.90;;;19.50;92.70;;;;;;4999795;28;20502;-64
2022/06/02 12:53:26;;;;;;;1999.90;999.90;;;19.50;92.90;;;;;;5012184;28;20464;-65
2022/06/02 12:56:07;;;;;;;1999.90;999.90;;;19.70;92.70;;;;;;5009889;28;20538;-65
2022/06/02 12:59:19;;;;;;;1999.90;999.90;;;19.80;91.70;;;;;;5008491;28;20497;-65
2022/06/02 13:02:06;;;;;;;1999.90;999.90;;;19.70;91.70;;;;;;4995673;28;20492;-65
2022/06/02 13:05:16;;;;;;;1999.90;999.90;;;19.80;91.60;;;;;;5013956;28;20482;-65
2022/06/02 13:08:31;;;;;;;1999.90;999.90;;;19.60;91.80;;;;;;5010905;28;20456;-64
2022/06/02 13:11:13;;;;;;;1999.90;999.90;;;19.50;92.00;;;;;;4994740;28;20456;-64
2022/06/02 13:14:06;;;;;;;1999.90;999.90;;;19.60;92.00;;;;;;5010446;28;20464;-64
2022/06/02 13:17:07;;;;;;;1999.90;999.90;;;19.70;92.00;;;;;;5008120;28;20472;-65
2022/06/02 13:19:52;;;;;;;1999.90;999.90;;;19.80;91.90;;;;;;5014569;28;20467;-64
2022/06/02 13:22:54;;;;;;;1999.90;999.90;;;19.70;92.10;;;;;;5011847;28;21052;-65
2022/06/02 13:25:42;;;;;;;1999.90;999.90;;;19.70;91.60;;;;;;5022861;28;20467;-67
2022/06/02 13:28:54;;;;;;;1999.90;999.90;;;19.60;92.10;;;;;;5014403;28;20914;-63
2022/06/02 13:32:03;;;;;;;1999.90;999.90;;;19.70;92.20;;;;;;5012877;28;20464;-64
2022/06/02 13:35:05;;;;;;;1999.90;999.90;;;19.50;91.80;;;;;;5004917;28;20454;-65
2022/06/02 13:37:49;;;;;;;1999.90;999.90;;;19.80;92.40;;;;;;5008469;28;20504;-65
2022/06/02 13:40:23;;;;;;;1999.90;999.90;;;20.10;91.70;;;;;;5016023;28;20444;-65
2022/06/02 13:43:28;;;;;;;1999.90;999.90;;;20.30;92.00;;;;;;5012834;28;20483;-65
2022/06/02 13:46:12;;;;;;;1999.90;999.90;;;20.50;91.80;;;;;;5012941;28;20920;-64
2022/06/02 13:49:08;;;;;;;1999.90;999.90;;;20.70;90.50;;;;;;5007236;28;20468;-64
2022/06/02 13:52:04;;;;;;;1999.90;999.90;;;20.80;90.60;;;;;;5006108;28;21038;-65
2022/06/02 13:58:01;;;;;;;1999.90;999.90;;;20.50;91.20;;;;;;4999323;28;20444;-65
2022/06/02 14:00:50;;;;;;;1999.90;999.90;;;20.70;92.10;;;;;;5001403;28;20507;-65
2022/06/02 14:03:39;;;;;;;1999.90;999.90;;;20.90;90.50;;;;;;5008547;28;20496;-65
2022/06/02 14:06:09;;;;;;;1999.90;999.90;;;21.10;90.20;;;;;;5009816;28;20518;-65
2022/06/02 14:09:05;;;;;;;1999.90;999.90;;;20.90;90.40;;;;;;5011472;28;20608;-65
2022/06/02 14:11:50;;;;;;;1999.90;999.90;;;20.80;89.40;;;;;;5009947;28;21074;-64
2022/06/02 14:14:49;;;;;;;1999.90;999.90;;;20.60;90.80;;;;;;5019270;28;20476;-64
2022/06/02 14:17:29;;;;;;;1999.90;999.90;;;20.40;90.70;;;;;;5018055;28;20464;-65